Aktualne dane pomiarowe

Uwaga, wersja testowa! Automatyczne pobieranie danych za pomocą narzędzi lub skryptów to umożliwiających jest zabronione.

Dane meteo z obszaru Polski uzyskane na podstawie depesz SYNOP pobieranych co godzinę z NWS. Najedź myszką na symbol przedstawiony w tabeli, aby uzyskać informacje co do jego znaczenia. Prosimy pamiętać, że to testowa wersja strony, która jeszcze nie jest ukończona. Stworzono również jest krótki FAQ dotyczący korzystania z tej podstrony Anomalie temperatury w chwili obecnej odniesione są do okresu referencyjnego 1951-2016. Okres ten będzie później zmieniony na 1981-2010. Kliknij ikonę aby pobrać plik CSV. Kliknij ikonę aby wygenerować mapę synoptyczną dla danego terminu.

Wybierz Datę:    

        

Jelenia Góra (12500)

Dane terminowe dla wybranej stacji. Kliknij datę, aby otrzymać dane z tego terminu dla wszystkich stacji.

TemperaturaZachmurzenieWiatrCiśnienieOpadyPogoda
 Data t td wb tx tn tg rh  Nt Nl Cl Cm Ch ws wd g1 g2 wx mslp ppp ch 24h 12h t ww ww w1 w2  
2019-06-24 23:00:00 14.0 13.4 13.5--- 9620.0wx-0----1025.3 984.2 0.3---------
2019-06-24 22:00:00 15.5 14.4 14.7--- 9320.0wx-1wx--11025.1 984.2 0.7---------
2019-06-24 21:00:00 17.1 15.3 15.8--- 8930.0wx-0---01024.7 984.1 0.8---------
2019-06-24 20:00:00 18.9 15.6 16.6--- 8130.0wx-1wx---1024.3 983.9 0.8---------
2019-06-24 19:00:00 21.7 14.6 17.1--- 6450.0wx-1wx--11023.5 983.5 0.2---------
2019-06-24 18:00:00 25.3 14.1 18.2 26.9 15.2- 5040.0wxwxwx2wx--21022.8 983.3 0.0- 0.012------
2019-06-24 17:00:00 26.1 13.2 18.1--- 4530.0wxwxwxwx4wx--41022.4 983.1 -0.2---------
2019-06-24 16:00:00 26.4 13.8 18.5--- 4635.0wxwxwxwx3wx--31022.6 983.3 -0.1---------
2019-06-24 15:00:00 26.4 13.5 18.4--- 4535.0wxwxwxwx3wx--31022.6 983.3 -0.3---------
2019-06-24 14:00:00 26.1 12.5 17.8--- 4340.0wxwxwxwx4wx---1022.7 983.3 -0.7---------
2019-06-24 13:00:00 26.1 12.9 18.0--- 4435.0wxwxwxwx4wx---1022.8 983.4 -0.9---------
2019-06-24 12:00:00 25.4 12.6 17.5--- 4540.0wxwxwxwx4wx--41023.1 983.6 -0.6- 0.06------
2019-06-24 11:00:00 24.9 11.1 16.6--- 4240.0wxwxwxwx4wx--41023.5 984.0 -0.3---------
2019-06-24 10:00:00 24.0 10.3 15.9--- 4230.0wx-wx4wx--41024.0 984.3 -0.1---------
2019-06-24 09:00:00 22.6 7.9 14.3--- 3945.0wx-wx3wx--31024.1 984.2 -0.1---------
2019-06-24 08:00:00 21.9 8.0 14.0--- 4140.0wx-wx3wx---1024.3 984.3 0.0---------
2019-06-24 07:00:00 19.5 9.7 13.7--- 5340.0wx-wx1wx--11024.7 984.4 0.2---------
2019-06-24 06:00:00 15.2 11.8 12.9 22.2 7.5 5 8045.0wx-wx0---01025.2 984.3 0.3- 0.012----- 13.0
2019-06-24 05:00:00 11.5 10.4 10.7--- 9330.0wx-wx1wx--11025.8 984.3 0.6---------
2019-06-24 04:00:00 8.0 8.0 7.9--- 10010.0wx-wx1wx--11026.2 984.2 0.5---wx---
2019-06-24 03:00:00 7.9 7.9 7.8--- 10012.0wx-wx0---01026.0 984.0 0.6---wx---
2019-06-24 02:00:00 8.0 8.0 7.9--- 10015.0wx-wx1wx--11025.7 983.7 0.1---wx---
2019-06-24 01:00:00 8.8 8.2 8.3--- 9630.0wx-wx1wx--11025.5 983.7 0.2---------
2019-06-24 00:00:00 9.9 9.1 9.3--- 9535.0wx-wx1wx--11025.1 983.4 0.6- 0.06------
2019-06-23 23:00:00 10.6 10.3 10.3--- 9815.0wx-1wx--11025.2 983.6 1.4---------
2019-06-23 22:00:00 12.5 10.4 11.1--- 8730.0wx-0----1024.8 983.5 1.9---------
2019-06-23 21:00:00 13.4 11.5 12.1--- 8835.0wx-wx1wx--11023.9 982.8 1.6---------
2019-06-23 20:00:00 15.3 10.5 12.2--- 7350.0wx-wx0---01023.0 982.2 1.2---------
2019-06-23 19:00:00 20.2 9.7 14.0--- 5150.0wx-wx1wx--11021.7 981.6 0.7---------
2019-06-23 18:00:00 22.2 10.0 15.0 23.8 17.2- 4650.0wx-wx2wx-1021021.0 981.2 0.1- 0.012------
2019-06-23 17:00:00 22.9 10.0 15.3--- 4445.0wxwxwxwx3wx--31020.7 981.0 -0.3---------
2019-06-23 16:00:00 23.4 9.8 15.4--- 4240.0wxwxwxwx4wx---1020.5 980.9 -0.6---------
2019-06-23 15:00:00 23.6 11.0 16.1--- 4535.0wxwxwxwx3wx-1031020.7 981.1 -0.5---------
2019-06-23 14:00:00 23.1 11.2 15.9--- 4740.0wxwxwxwx3wx--31021.0 981.3 -0.4---------
2019-06-23 13:00:00 23.2 10.9 15.8--- 4640.0wxwxwxwx4wx---1021.2 981.5 0.0---------
2019-06-23 12:00:00 23.0 12.0 16.3--- 5040.0wxwxwxwx5wx--51021.3 981.6 0.2- 0.06------
2019-06-23 11:00:00 22.6 13.1 16.7--- 5535.0wxwxwxwxwx3wx--31021.5 981.7 0.3---------
2019-06-23 10:00:00 21.2 13.1 16.1--- 6035.0wxwxwxwxwx5wx--51021.4 981.5 0.4---------
2019-06-23 09:00:00 20.5 12.5 15.5--- 6030.0wxwxwxwxwx5wx--51021.4 981.4 0.7---------
2019-06-23 08:00:00 19.5 12.3 15.0--- 6335.0wxwxwxwx4wx--41021.6 981.4 1.0---------
2019-06-23 07:00:00 18.2 12.2 14.4--- 6840.0wxwxwxwxwx4wx---1021.5 981.1 0.8---------
2019-06-23 06:00:00 17.3 12.0 13.9 21.6 11.7 10 7140.0wxwxwxwxwx2wx--21021.2 980.7 0.7- 0.012----- 12.9
2019-06-23 05:00:00 15.8 11.4 12.9--- 7550.0wxwxwxwxwx1wx--11021.1 980.4 0.5---------
2019-06-23 04:00:00 15.0 11.6 12.7--- 8050.0wxwxwxwx2wx--21021.1 980.3 0.2---------
2019-06-23 03:00:00 14.0 11.9 12.6--- 8750.0wxwxwxwx1wx--11020.9 980.0 -0.3---------
2019-06-23 02:00:00 14.2 11.4 12.3--- 8350.0wxwxwxwxwx1wx---1020.8 979.9 -0.7---------
2019-06-23 01:00:00 15.6 10.6 12.4--- 7250.0wxwxwxwx2wx--21020.8 980.1 -0.2---------
2019-06-23 00:00:00 14.8 10.2 11.9--- 7450.0wx-wxwx2wx--21021.1 980.3 0.4- 0.06------
1.6 ms

 

Print Friendly, PDF & Email